createdAt,value
2018-07-31T00:02:19.419Z,66.79
2018-07-31T00:04:48.773Z,67.42
2018-07-31T00:07:18.115Z,66.78
2018-07-31T00:09:47.467Z,66.91
2018-07-31T00:12:16.821Z,66.00
2018-07-31T00:14:46.176Z,66.46
2018-07-31T00:17:15.531Z,65.91
2018-07-31T00:19:44.622Z,64.89
2018-07-31T00:22:13.730Z,64.76
2018-07-31T00:24:43.126Z,64.55
2018-07-31T00:27:12.232Z,65.19
2018-07-31T00:29:41.342Z,66.54
2018-07-31T00:32:10.711Z,67.48
2018-07-31T00:34:40.061Z,67.95
2018-07-31T00:37:09.415Z,68.63
2018-07-31T00:39:38.779Z,69.48
2018-07-31T00:42:08.551Z,69.35
2018-07-31T00:44:37.895Z,70.10
2018-07-31T00:47:07.259Z,70.24
2018-07-31T00:49:36.590Z,70.37
2018-07-31T00:52:05.943Z,70.10
2018-07-31T00:54:35.308Z,68.94
2018-07-31T00:57:04.668Z,69.58
2018-07-31T00:59:34.008Z,68.88
2018-07-31T01:02:03.367Z,67.76
2018-07-31T01:04:32.707Z,67.34
2018-07-31T01:07:02.067Z,67.90
2018-07-31T01:09:31.423Z,68.24
2018-07-31T01:12:00.766Z,67.63
2018-07-31T01:14:30.115Z,68.10
2018-07-31T01:16:59.475Z,68.46
2018-07-31T01:19:28.822Z,68.25
2018-07-31T01:21:58.171Z,69.14
2018-07-31T01:24:27.515Z,68.55
2018-07-31T01:26:56.867Z,68.72
2018-07-31T01:29:26.214Z,69.51
2018-07-31T01:31:55.564Z,69.92
2018-07-31T01:34:24.922Z,70.60
2018-07-31T01:36:54.273Z,71.05
2018-07-31T01:39:23.629Z,71.71
2018-07-31T01:41:52.966Z,71.93
2018-07-31T01:44:22.330Z,71.90
2018-07-31T01:46:51.701Z,71.18
2018-07-31T01:49:21.047Z,70.91
2018-07-31T01:51:50.391Z,71.13
2018-07-31T01:54:19.739Z,70.54
2018-07-31T01:56:49.088Z,71.59
2018-07-31T01:59:18.438Z,71.12
2018-07-31T02:01:47.807Z,71.27
2018-07-31T02:04:17.167Z,72.19
2018-07-31T02:06:46.259Z,71.80
2018-07-31T02:09:15.622Z,72.31
2018-07-31T02:11:44.970Z,72.42
2018-07-31T02:14:14.090Z,73.17
2018-07-31T02:16:43.514Z,72.55
2018-07-31T02:19:12.889Z,72.18
2018-07-31T02:21:42.253Z,72.52
2018-07-31T02:24:11.627Z,72.40
2018-07-31T02:26:41.074Z,72.18
2018-07-31T02:29:10.193Z,73.13
2018-07-31T02:31:39.572Z,73.46
2018-07-31T02:34:08.956Z,73.43
2018-07-31T02:36:38.319Z,73.03
2018-07-31T02:39:09.116Z,72.33
2018-07-31T02:41:38.230Z,72.65
2018-07-31T02:44:08.677Z,73.05
2018-07-31T02:46:38.045Z,72.72
2018-07-31T02:49:07.429Z,71.96
2018-07-31T02:51:36.559Z,72.27
2018-07-31T02:54:06.035Z,72.43
2018-07-31T02:56:35.156Z,72.40
2018-07-31T02:59:04.572Z,72.96
2018-07-31T03:01:33.940Z,73.47
2018-07-31T03:04:03.332Z,74.75
2018-07-31T03:06:32.531Z,74.08
2018-07-31T03:09:01.929Z,74.11
2018-07-31T03:11:31.058Z,75.10
2018-07-31T03:14:00.416Z,74.12
2018-07-31T03:16:29.775Z,74.49
2018-07-31T03:18:59.127Z,74.35
2018-07-31T03:21:28.242Z,73.01
2018-07-31T03:23:57.603Z,72.82
2018-07-31T03:26:26.984Z,72.36
2018-07-31T03:28:56.342Z,72.58
2018-07-31T03:31:25.705Z,73.24
2018-07-31T03:33:55.088Z,73.89
2018-07-31T03:36:24.468Z,74.17
2018-07-31T03:38:53.822Z,73.93
2018-07-31T03:41:22.935Z,75.20
2018-07-31T03:43:52.060Z,74.39
2018-07-31T03:46:21.423Z,75.31
2018-07-31T03:48:50.778Z,74.78
2018-07-31T03:51:20.138Z,74.88
2018-07-31T03:53:49.238Z,74.58
2018-07-31T03:56:18.626Z,74.66
2018-07-31T03:58:47.975Z,75.48
2018-07-31T04:01:17.349Z,75.24
2018-07-31T04:03:46.708Z,75.55
2018-07-31T04:06:16.152Z,75.35
2018-07-31T04:08:45.509Z,75.80
2018-07-31T04:11:14.916Z,76.01
2018-07-31T04:13:44.262Z,75.47
2018-07-31T04:16:13.652Z,74.20
2018-07-31T04:18:43.019Z,74.48
2018-07-31T04:21:12.398Z,74.24
2018-07-31T04:23:41.881Z,73.84
2018-07-31T04:26:11.247Z,74.23
2018-07-31T04:28:40.594Z,75.40
2018-07-31T04:31:09.960Z,76.21
2018-07-31T04:33:39.315Z,76.20
2018-07-31T04:36:08.857Z,76.54
2018-07-31T04:38:38.186Z,77.10
2018-07-31T04:41:07.758Z,76.31
2018-07-31T04:43:37.076Z,75.58
2018-07-31T04:46:06.732Z,74.82
2018-07-31T04:48:36.135Z,74.00
2018-07-31T04:51:05.507Z,74.27
2018-07-31T04:53:34.860Z,73.91
2018-07-31T04:56:04.258Z,73.33
2018-07-31T04:58:33.598Z,74.00
2018-07-31T05:01:02.955Z,75.13
2018-07-31T05:03:32.368Z,74.96
2018-07-31T05:06:01.715Z,75.29
2018-07-31T05:08:31.085Z,75.81
2018-07-31T05:11:00.243Z,76.48
2018-07-31T05:13:29.566Z,76.41
2018-07-31T05:15:58.930Z,74.34
2018-07-31T05:18:28.303Z,74.23
2018-07-31T05:20:57.694Z,73.07
2018-07-31T05:23:27.057Z,73.38
2018-07-31T05:25:56.503Z,72.12
2018-07-31T05:28:25.871Z,72.41
2018-07-31T05:30:55.228Z,71.68
2018-07-31T05:33:24.599Z,71.46
2018-07-31T05:35:53.708Z,71.54
2018-07-31T05:38:23.079Z,70.89
2018-07-31T05:40:52.422Z,69.80
2018-07-31T05:43:21.791Z,70.65
2018-07-31T05:45:50.897Z,70.15
2018-07-31T05:48:20.272Z,69.39
2018-07-31T05:50:49.630Z,69.48
2018-07-31T05:53:19.012Z,69.28
2018-07-31T05:55:48.379Z,69.44
2018-07-31T05:58:17.747Z,69.66
2018-07-31T06:00:47.111Z,68.77
2018-07-31T06:03:16.495Z,68.45
2018-07-31T06:05:45.880Z,68.01
2018-07-31T06:08:15.242Z,66.30
2018-07-31T06:10:44.598Z,66.15
2018-07-31T06:13:13.963Z,66.02
2018-07-31T06:15:43.533Z,65.72
2018-07-31T06:18:12.898Z,65.82
2018-07-31T06:20:42.019Z,65.27
2018-07-31T06:23:11.386Z,65.61
2018-07-31T06:25:40.757Z,65.32
2018-07-31T06:28:10.103Z,65.39
2018-07-31T06:30:39.468Z,65.17
2018-07-31T06:33:08.856Z,65.07
2018-07-31T06:35:38.211Z,65.54
2018-07-31T06:38:08.462Z,65.32
2018-07-31T06:40:37.815Z,64.97
2018-07-31T06:43:07.207Z,65.19
2018-07-31T06:45:36.583Z,65.10
2018-07-31T06:48:05.965Z,64.53
2018-07-31T06:50:35.977Z,64.23
2018-07-31T06:53:05.368Z,64.22
2018-07-31T06:55:34.723Z,63.74
2018-07-31T06:58:04.087Z,66.68
2018-07-31T07:00:33.474Z,64.62
2018-07-31T07:03:02.855Z,64.69
2018-07-31T07:05:31.966Z,64.43
2018-07-31T07:08:01.086Z,63.53
2018-07-31T07:10:30.469Z,63.13
2018-07-31T07:12:59.838Z,62.73
2018-07-31T07:15:29.235Z,62.33
2018-07-31T07:17:58.563Z,62.19
2018-07-31T07:20:27.687Z,61.63
2018-07-31T07:22:57.063Z,59.40
2018-07-31T07:25:26.422Z,57.07
2018-07-31T07:27:55.808Z,55.66
2018-07-31T07:30:25.136Z,54.58
2018-07-31T07:32:54.479Z,53.49
2018-07-31T07:35:23.851Z,53.11
2018-07-31T07:37:53.350Z,52.02
2018-07-31T07:40:22.722Z,51.27
2018-07-31T07:42:52.118Z,50.36
2018-07-31T07:45:21.491Z,50.44
2018-07-31T07:47:50.853Z,50.66
2018-07-31T07:50:20.222Z,51.46
2018-07-31T07:52:49.582Z,50.57
2018-07-31T07:55:18.694Z,47.13
2018-07-31T07:57:48.073Z,49.00
2018-07-31T08:00:17.177Z,47.35
2018-07-31T08:02:46.548Z,48.72
2018-07-31T08:05:15.907Z,49.01
2018-07-31T08:07:45.270Z,48.14
2018-07-31T08:10:14.655Z,47.64
2018-07-31T08:12:44.024Z,47.12
2018-07-31T08:15:13.399Z,46.96
2018-07-31T08:17:42.791Z,46.79
2018-07-31T08:20:12.144Z,45.78
2018-07-31T08:22:41.585Z,44.52
2018-07-31T08:25:10.891Z,43.65
2018-07-31T08:27:40.254Z,44.30
2018-07-31T08:30:09.656Z,44.77
2018-07-31T08:32:38.975Z,44.92
2018-07-31T08:35:08.103Z,41.03
2018-07-31T08:37:37.534Z,40.49
2018-07-31T08:40:07.164Z,39.87
2018-07-31T08:42:36.531Z,40.50
2018-07-31T08:45:06.123Z,41.22
2018-07-31T08:47:35.475Z,41.33
2018-07-31T08:50:05.386Z,38.24
2018-07-31T08:52:34.745Z,41.11
2018-07-31T08:55:04.160Z,39.69
2018-07-31T08:57:33.527Z,39.01
2018-07-31T09:00:02.919Z,39.10
2018-07-31T09:02:32.039Z,37.49
2018-07-31T09:05:01.435Z,37.19
2018-07-31T09:07:30.820Z,35.53
2018-07-31T09:09:59.935Z,36.06
2018-07-31T09:12:29.272Z,36.80
2018-07-31T09:14:58.598Z,36.19
2018-07-31T09:17:28.039Z,35.51
2018-07-31T09:19:57.304Z,36.20
2018-07-31T09:22:26.617Z,34.48
2018-07-31T09:24:55.698Z,34.25
2018-07-31T09:27:25.019Z,36.35
2018-07-31T09:29:54.339Z,34.86
2018-07-31T09:32:28.863Z,34.41
2018-07-31T09:34:58.195Z,34.96
2018-07-31T09:37:27.538Z,33.44
2018-07-31T09:39:56.611Z,34.04
2018-07-31T09:42:25.947Z,36.14
2018-07-31T09:44:55.275Z,36.83
2018-07-31T09:47:24.620Z,37.20
2018-07-31T09:49:53.961Z,36.90
2018-07-31T09:52:23.319Z,38.10
2018-07-31T09:54:52.692Z,35.37
2018-07-31T09:57:22.023Z,34.38
2018-07-31T09:59:51.369Z,34.07
2018-07-31T10:02:20.692Z,35.41
2018-07-31T10:04:50.008Z,34.56
2018-07-31T10:07:19.339Z,35.24
2018-07-31T10:09:48.667Z,35.95
2018-07-31T10:12:18.014Z,36.25
2018-07-31T10:14:47.335Z,36.96
2018-07-31T10:17:16.651Z,36.84
2018-07-31T10:19:45.988Z,37.42
2018-07-31T10:22:15.336Z,37.64
2018-07-31T10:24:44.412Z,36.65
2018-07-31T10:27:13.739Z,37.77
2018-07-31T10:29:42.810Z,36.79
2018-07-31T10:32:12.138Z,37.20
2018-07-31T10:34:41.473Z,34.52
2018-07-31T10:37:10.790Z,32.38
2018-07-31T10:39:40.111Z,32.35
2018-07-31T10:42:09.442Z,31.96
2018-07-31T10:44:38.759Z,33.11
2018-07-31T10:47:08.102Z,32.59
2018-07-31T10:49:37.426Z,31.83
2018-07-31T10:52:06.505Z,31.96
2018-07-31T10:54:35.826Z,32.04
2018-07-31T10:57:04.919Z,32.61
2018-07-31T10:59:34.361Z,33.88
2018-07-31T11:02:03.703Z,32.56
2018-07-31T11:04:33.035Z,34.37
2018-07-31T11:07:02.173Z,31.03
2018-07-31T11:09:31.559Z,32.91
2018-07-31T11:12:00.993Z,32.16
2018-07-31T11:14:30.387Z,31.30
2018-07-31T11:16:59.744Z,33.93
2018-07-31T11:19:29.123Z,32.53
2018-07-31T11:21:58.501Z,30.54
2018-07-31T11:24:27.878Z,30.92
2018-07-31T11:26:57.300Z,30.45
2018-07-31T11:29:26.719Z,29.35
2018-07-31T11:31:56.091Z,30.12
2018-07-31T11:34:25.486Z,28.85
2018-07-31T11:36:54.855Z,28.86
2018-07-31T11:39:23.969Z,29.47
2018-07-31T11:41:53.343Z,28.84
2018-07-31T11:44:22.466Z,29.12
2018-07-31T11:46:51.841Z,28.88
2018-07-31T11:49:21.237Z,29.42
2018-07-31T11:51:50.596Z,28.59
2018-07-31T11:54:19.964Z,28.22
2018-07-31T11:56:49.345Z,28.54
2018-07-31T11:59:18.732Z,30.59
2018-07-31T12:01:48.129Z,29.62
2018-07-31T12:04:17.543Z,28.08
2018-07-31T12:06:46.852Z,25.94
2018-07-31T12:09:15.994Z,25.02
2018-07-31T12:11:45.591Z,25.44
2018-07-31T12:14:15.299Z,25.90
2018-07-31T12:16:44.679Z,29.43
2018-07-31T12:19:14.059Z,29.28
2018-07-31T12:21:43.187Z,32.02
2018-07-31T12:24:12.566Z,30.10
2018-07-31T12:26:41.956Z,33.37
2018-07-31T12:29:11.364Z,33.10
2018-07-31T12:31:40.477Z,34.63
2018-07-31T12:34:09.614Z,30.49
2018-07-31T12:36:39.040Z,31.84
2018-07-31T12:39:11.560Z,30.97
2018-07-31T12:41:40.964Z,28.00
2018-07-31T12:44:10.387Z,30.60
2018-07-31T12:46:39.468Z,33.28
2018-07-31T12:49:08.857Z,28.65
2018-07-31T12:51:38.225Z,27.49
2018-07-31T12:54:08.414Z,29.27
2018-07-31T12:56:37.805Z,26.89
2018-07-31T12:59:07.251Z,32.43
2018-07-31T13:01:36.672Z,31.03
2018-07-31T13:04:06.028Z,30.20
2018-07-31T13:06:35.471Z,29.72
2018-07-31T13:09:06.937Z,29.70
2018-07-31T13:11:36.463Z,28.64
2018-07-31T13:14:05.884Z,27.69
2018-07-31T13:16:35.258Z,27.06
2018-07-31T13:19:04.653Z,25.84
2018-07-31T13:21:34.019Z,26.99
2018-07-31T13:24:03.432Z,21.93
2018-07-31T13:26:32.819Z,22.64
2018-07-31T13:29:02.225Z,24.99
2018-07-31T13:31:31.577Z,21.32
2018-07-31T13:34:00.948Z,20.71
2018-07-31T13:36:30.116Z,24.00
2018-07-31T13:38:59.476Z,22.53
2018-07-31T13:41:28.859Z,21.54
2018-07-31T13:43:58.339Z,19.31
2018-07-31T13:46:27.387Z,23.19
2018-07-31T13:48:56.758Z,25.59
2018-07-31T13:51:26.111Z,21.74
2018-07-31T13:53:55.485Z,20.69
2018-07-31T13:56:24.871Z,20.22
2018-07-31T13:58:54.479Z,21.62
2018-07-31T14:01:23.858Z,22.31
2018-07-31T14:03:52.978Z,21.02
2018-07-31T14:06:22.326Z,22.30
2018-07-31T14:08:51.690Z,20.36
2018-07-31T14:11:21.077Z,20.31
2018-07-31T14:13:50.797Z,21.21
2018-07-31T14:16:19.884Z,19.49
2018-07-31T14:18:49.244Z,23.48
2018-07-31T14:21:18.608Z,21.35
2018-07-31T14:23:47.973Z,21.00
2018-07-31T14:26:17.085Z,21.83
2018-07-31T14:28:46.486Z,19.80
2018-07-31T14:31:15.863Z,20.15
2018-07-31T14:33:44.976Z,20.22
2018-07-31T14:36:14.386Z,21.26
2018-07-31T14:38:43.782Z,22.58
2018-07-31T14:41:12.962Z,21.26
2018-07-31T14:43:42.079Z,21.03
2018-07-31T14:46:11.492Z,21.09
2018-07-31T14:48:40.846Z,19.34
2018-07-31T14:51:10.244Z,18.90
2018-07-31T14:53:39.614Z,18.27
2018-07-31T14:56:08.970Z,21.05
2018-07-31T14:58:38.099Z,19.67
2018-07-31T15:01:07.583Z,18.96
2018-07-31T15:03:36.948Z,20.75
2018-07-31T15:06:06.330Z,19.65
2018-07-31T15:08:39.698Z,19.53
2018-07-31T15:11:10.600Z,20.77
2018-07-31T15:13:40.452Z,21.78
2018-07-31T15:16:09.850Z,20.97
2018-07-31T15:18:39.226Z,19.29
2018-07-31T15:21:08.379Z,19.06
2018-07-31T15:23:37.737Z,19.57
2018-07-31T15:26:07.207Z,18.92
2018-07-31T15:28:36.587Z,19.29
2018-07-31T15:31:05.943Z,19.81
2018-07-31T15:33:35.302Z,19.59
2018-07-31T15:36:04.668Z,19.40
2018-07-31T15:38:34.039Z,20.18
2018-07-31T15:41:03.164Z,20.47
2018-07-31T15:43:32.541Z,18.64
2018-07-31T15:46:01.896Z,18.94
2018-07-31T15:48:31.263Z,19.34
2018-07-31T15:51:00.651Z,19.64
2018-07-31T15:53:30.042Z,19.58
2018-07-31T15:55:59.407Z,19.45
2018-07-31T15:58:28.774Z,20.12
2018-07-31T16:00:58.157Z,20.61
2018-07-31T16:03:27.534Z,22.25
2018-07-31T16:05:56.684Z,20.77
2018-07-31T16:08:26.052Z,22.26
2018-07-31T16:10:55.410Z,22.21
2018-07-31T16:13:24.799Z,23.78
2018-07-31T16:15:54.170Z,23.64
2018-07-31T16:18:23.546Z,23.69
2018-07-31T16:20:52.671Z,23.56
2018-07-31T16:23:22.136Z,24.35
2018-07-31T16:25:51.432Z,23.79
2018-07-31T16:28:20.799Z,23.93
2018-07-31T16:30:50.174Z,23.88
2018-07-31T16:33:19.552Z,23.81
2018-07-31T16:35:48.669Z,24.47
2018-07-31T16:38:18.046Z,25.53
2018-07-31T16:40:47.157Z,26.13
2018-07-31T16:43:16.539Z,26.25
2018-07-31T16:45:45.663Z,25.40
2018-07-31T16:48:15.032Z,24.13
2018-07-31T16:50:44.412Z,24.04
2018-07-31T16:53:13.778Z,23.67
2018-07-31T16:55:43.150Z,24.46
2018-07-31T16:58:12.515Z,23.33
2018-07-31T17:00:41.896Z,23.44
2018-07-31T17:03:11.263Z,22.86
2018-07-31T17:05:40.652Z,23.39
2018-07-31T17:08:10.027Z,22.46
2018-07-31T17:10:39.421Z,23.39
2018-07-31T17:13:08.803Z,22.62
2018-07-31T17:15:38.172Z,22.99
2018-07-31T17:18:09.256Z,22.65
2018-07-31T17:20:38.628Z,21.59
2018-07-31T17:23:08.003Z,21.45
2018-07-31T17:25:37.389Z,22.31
2018-07-31T17:28:06.757Z,22.09
2018-07-31T17:30:36.126Z,21.55
2018-07-31T17:33:05.502Z,22.16
2018-07-31T17:35:34.874Z,22.21
2018-07-31T17:38:04.251Z,22.29
2018-07-31T17:40:34.475Z,21.68
2018-07-31T17:43:03.871Z,22.17
2018-07-31T17:45:33.240Z,22.48
2018-07-31T17:48:02.658Z,21.60
2018-07-31T17:50:31.752Z,23.59
2018-07-31T17:53:01.138Z,23.34
2018-07-31T17:55:30.276Z,23.09
2018-07-31T17:57:59.628Z,23.51
2018-07-31T18:00:29.093Z,23.92
2018-07-31T18:02:58.454Z,23.43
2018-07-31T18:05:27.826Z,23.73
2018-07-31T18:07:57.196Z,24.04
2018-07-31T18:10:26.574Z,24.23
2018-07-31T18:12:55.951Z,24.31
2018-07-31T18:15:25.075Z,24.57
2018-07-31T18:17:54.666Z,24.55
2018-07-31T18:20:24.044Z,24.96
2018-07-31T18:22:53.218Z,25.07
2018-07-31T18:25:22.595Z,24.57
2018-07-31T18:27:51.983Z,25.75
2018-07-31T18:30:21.360Z,25.72
2018-07-31T18:32:50.731Z,26.08
2018-07-31T18:35:20.109Z,25.92
2018-07-31T18:37:49.484Z,26.42
2018-07-31T18:40:18.863Z,27.06
2018-07-31T18:42:48.242Z,26.62
2018-07-31T18:45:17.599Z,26.66
2018-07-31T18:47:46.991Z,26.93
2018-07-31T18:50:16.372Z,27.28
2018-07-31T18:52:45.752Z,27.39
2018-07-31T18:55:14.888Z,27.41
2018-07-31T18:57:44.259Z,27.74
2018-07-31T19:00:13.378Z,27.80
2018-07-31T19:02:42.773Z,27.98
2018-07-31T19:05:12.144Z,28.51
2018-07-31T19:07:41.518Z,28.73
2018-07-31T19:10:10.893Z,28.98
2018-07-31T19:12:40.378Z,29.59
2018-07-31T19:15:09.783Z,29.71
2018-07-31T19:17:39.142Z,30.36
2018-07-31T19:20:09.268Z,30.78
2018-07-31T19:22:38.671Z,33.26
2018-07-31T19:25:08.058Z,36.60
2018-07-31T19:27:37.516Z,36.92
2018-07-31T19:30:07.239Z,38.32
2018-07-31T19:32:36.625Z,39.08
2018-07-31T19:35:06.010Z,40.11
2018-07-31T19:37:35.131Z,40.31
2018-07-31T19:40:04.544Z,40.92
2018-07-31T19:42:33.914Z,42.32
2018-07-31T19:45:03.452Z,42.70
2018-07-31T19:47:32.801Z,43.04
2018-07-31T19:50:02.174Z,43.91
2018-07-31T19:52:31.865Z,44.60
2018-07-31T19:55:01.253Z,43.00
2018-07-31T19:57:30.620Z,41.56
2018-07-31T19:59:59.974Z,41.29
2018-07-31T20:02:29.349Z,41.42
2018-07-31T20:04:58.723Z,42.57
2018-07-31T20:07:28.108Z,45.24
2018-07-31T20:09:57.476Z,46.45
2018-07-31T20:12:26.855Z,46.44
2018-07-31T20:14:56.230Z,48.03
2018-07-31T20:17:25.595Z,48.03
2018-07-31T20:19:54.957Z,48.02
2018-07-31T20:22:24.332Z,49.37
2018-07-31T20:24:53.678Z,48.26
2018-07-31T20:27:23.094Z,47.36
2018-07-31T20:29:52.431Z,47.66
2018-07-31T20:32:21.815Z,46.75
2018-07-31T20:34:51.253Z,45.86
2018-07-31T20:37:20.567Z,44.98
2018-07-31T20:39:49.931Z,44.05
2018-07-31T20:42:19.312Z,45.70
2018-07-31T20:44:48.701Z,47.79
2018-07-31T20:47:18.065Z,48.84
2018-07-31T20:49:47.452Z,49.35
2018-07-31T20:52:16.840Z,50.36
2018-07-31T20:54:46.176Z,50.62
2018-07-31T20:57:15.571Z,49.50
2018-07-31T20:59:44.727Z,48.72
2018-07-31T21:02:14.287Z,49.36
2018-07-31T21:04:43.705Z,48.25
2018-07-31T21:07:13.074Z,46.47
2018-07-31T21:09:42.183Z,46.04
2018-07-31T21:12:11.575Z,45.42
2018-07-31T21:14:40.694Z,45.70
2018-07-31T21:17:16.311Z,45.63
2018-07-31T21:19:45.553Z,46.05
2018-07-31T21:22:14.918Z,47.13
2018-07-31T21:24:44.038Z,46.78
2018-07-31T21:27:13.412Z,50.82
2018-07-31T21:29:42.800Z,53.42
2018-07-31T21:32:12.155Z,54.19
2018-07-31T21:34:41.506Z,54.40
2018-07-31T21:37:10.852Z,55.52
2018-07-31T21:39:40.204Z,57.48
2018-07-31T21:42:09.550Z,57.22
2018-07-31T21:44:38.915Z,56.15
2018-07-31T21:47:08.095Z,55.39
2018-07-31T21:49:37.448Z,55.43
2018-07-31T21:52:06.823Z,53.09
2018-07-31T21:54:35.932Z,53.74
2018-07-31T21:57:05.298Z,54.87
2018-07-31T21:59:34.675Z,55.67
2018-07-31T22:02:04.033Z,56.51
2018-07-31T22:04:33.391Z,56.27
2018-07-31T22:07:02.748Z,55.86
2018-07-31T22:09:36.167Z,56.18
2018-07-31T22:12:05.540Z,57.19
2018-07-31T22:14:34.892Z,57.95
2018-07-31T22:17:04.255Z,57.13
2018-07-31T22:19:33.623Z,55.71
2018-07-31T22:22:02.837Z,54.97
2018-07-31T22:24:32.468Z,56.68
2018-07-31T22:27:01.818Z,57.46
2018-07-31T22:29:31.184Z,58.08
2018-07-31T22:32:00.553Z,59.08
2018-07-31T22:34:29.890Z,58.33
2018-07-31T22:36:59.251Z,60.09
2018-07-31T22:39:28.600Z,60.33
2018-07-31T22:41:57.968Z,58.49
2018-07-31T22:44:27.318Z,57.18
2018-07-31T22:46:56.675Z,57.07
2018-07-31T22:49:26.015Z,56.10
2018-07-31T22:51:55.363Z,55.03
2018-07-31T22:54:24.804Z,54.82
2018-07-31T22:56:54.118Z,54.29
2018-07-31T22:59:23.467Z,54.33
2018-07-31T23:01:52.827Z,53.85
2018-07-31T23:04:22.177Z,53.29
2018-07-31T23:06:51.539Z,54.06
2018-07-31T23:09:20.886Z,52.61
2018-07-31T23:11:50.254Z,53.43
2018-07-31T23:14:19.350Z,56.32
2018-07-31T23:16:48.703Z,57.63
2018-07-31T23:19:18.056Z,58.61
2018-07-31T23:21:47.414Z,58.61
2018-07-31T23:24:16.796Z,58.21
2018-07-31T23:26:46.168Z,57.16
2018-07-31T23:29:15.513Z,55.66
2018-07-31T23:31:44.871Z,55.58
2018-07-31T23:34:14.223Z,59.13
2018-07-31T23:36:43.574Z,59.72
2018-07-31T23:39:12.913Z,60.23
2018-07-31T23:41:42.280Z,60.16
2018-07-31T23:44:11.623Z,61.01
2018-07-31T23:46:40.972Z,60.58
2018-07-31T23:49:10.321Z,61.10
2018-07-31T23:51:39.687Z,59.12
2018-07-31T23:54:09.036Z,58.51
2018-07-31T23:56:38.423Z,58.12
2018-07-31T23:59:07.789Z,57.25
